Swamp Rd, Vermont
Current Conditions -  °F | °C
As of 10:51 AM on Monday 22 Dec 2014 (Local Time) from KMPV Reporting Station
Overcast Overcast  
Wind Chill: 26°   Ceiling: 3000
Heat Index: 26°   Visibility: 7mi
Dew Point: 22°   Wind: 0mph
Humidity: 84%   Direction: NA
Pressure: 30.37"   Gusts: NA
Location:  44.2289°N, 72.124°W
Report Text: KMPV 221551Z AUTO 00000KT 7SM OVC030 M03/M06 A3037 RMK AO2 SLP302 T10331056
Loading
Personal Weather Stations






























Interactive Weather Map New forecast layout! Learn more

10-Day Weather Forecast

Advertisements
Track Severe Weather on mobile